Time;durP1;ratioP1;P1;durP2;ratioP2;P2;SDS_P1;SDS_P2;PMS_P1;PMS_P2;Temp;Humidity;BMP_temperature;BMP_pressure;BME280_temperature;BME280_humidity;BME280_pressure;Samples;Min_cycle;Max_cycle;Signal;HPM_P1;HPM_P2
2023/10/12 00:02:21;;;;;;;7.43;3.57;;;19.30;99.90;;;;;;5034348;28;20192;-75
2023/10/12 00:04:50;;;;;;;10.80;4.30;;;19.30;99.90;;;;;;5034376;28;20639;-76
2023/10/12 00:07:16;;;;;;;18.03;4.03;;;19.30;99.90;;;;;;5033063;28;20176;-75
2023/10/12 00:09:49;;;;;;;10.93;4.07;;;19.20;1.00;;;;;;5033032;28;20203;-76
2023/10/12 00:12:24;;;;;;;7.77;3.70;;;19.20;99.90;;;;;;5034248;28;20282;-75
2023/10/12 00:14:56;;;;;;;8.30;4.17;;;19.20;1.00;;;;;;5034247;28;20294;-76
2023/10/12 00:17:26;;;;;;;14.23;4.17;;;19.20;99.90;;;;;;5039171;28;20183;-75
2023/10/12 00:19:52;;;;;;;7.43;3.60;;;19.10;1.00;;;;;;5049750;28;20207;-75
2023/10/12 00:22:18;;;;;;;9.60;3.80;;;19.10;1.00;;;;;;5045550;28;20210;-75
2023/10/12 00:24:44;;;;;;;9.30;4.23;;;19.00;1.00;;;;;;5034103;28;20272;-75
2023/10/12 00:27:12;;;;;;;10.93;3.70;;;19.00;1.00;;;;;;5036861;28;20167;-75
2023/10/12 00:29:39;;;;;;;7.20;4.00;;;19.00;1.00;;;;;;5053871;28;20172;-74
2023/10/12 00:32:09;;;;;;;9.50;3.87;;;19.00;1.00;;;;;;5053856;28;20194;-75
2023/10/12 00:34:39;;;;;;;10.17;3.57;;;18.80;1.00;;;;;;5053761;28;20187;-75
2023/10/12 00:37:06;;;;;;;12.00;4.00;;;18.90;1.00;;;;;;5051479;28;20671;-75
2023/10/12 00:39:45;;;;;;;7.33;3.70;;;18.90;1.00;;;;;;5044485;28;20199;-75
2023/10/12 00:42:17;;;;;;;10.53;4.10;;;18.90;1.00;;;;;;5033780;28;20184;-75
2023/10/12 00:44:42;;;;;;;10.97;4.00;;;18.90;1.00;;;;;;5044758;28;20211;-75
2023/10/12 00:47:12;;;;;;;6.57;3.53;;;18.90;1.00;;;;;;5051859;28;20651;-75
2023/10/12 00:49:48;;;;;;;12.47;4.20;;;18.90;1.00;;;;;;5053392;28;20183;-76
2023/10/12 00:52:23;;;;;;;10.33;3.70;;;19.00;1.00;;;;;;5052053;28;20277;-75
2023/10/12 00:54:56;;;;;;;15.10;4.10;;;18.80;1.00;;;;;;5052023;28;20171;-75
2023/10/12 00:57:22;;;;;;;13.63;4.30;;;18.90;1.00;;;;;;5053531;28;20658;-75
2023/10/12 00:59:51;;;;;;;6.77;3.73;;;18.80;1.00;;;;;;5050789;28;20298;-75
2023/10/12 01:02:20;;;;;;;8.97;4.20;;;18.90;1.00;;;;;;5053107;28;20191;-75
2023/10/12 01:04:48;;;;;;;6.77;4.27;;;18.80;1.00;;;;;;5046401;28;20536;-75
2023/10/12 01:07:20;;;;;;;13.80;4.13;;;18.90;1.00;;;;;;5052966;28;20164;-75
2023/10/12 01:09:54;;;;;;;10.70;4.30;;;18.80;1.00;;;;;;5053073;28;20148;-75
2023/10/12 01:12:19;;;;;;;12.67;4.57;;;18.90;99.90;;;;;;5053042;28;20561;-75
2023/10/12 01:14:48;;;;;;;11.43;3.87;;;18.90;99.90;;;;;;5051835;28;20187;-75
2023/10/12 01:17:23;;;;;;;16.03;4.83;;;18.90;99.90;;;;;;5053099;28;20665;-75
2023/10/12 01:19:51;;;;;;;8.87;3.90;;;18.90;99.90;;;;;;5043155;28;20748;-75
2023/10/12 01:22:25;;;;;;;10.70;4.20;;;19.00;99.90;;;;;;5032823;28;20184;-75
2023/10/12 01:27:20;;;;;;;7.83;3.90;;;18.90;99.90;;;;;;5052757;28;20178;-75
2023/10/12 01:29:46;;;;;;;10.30;4.63;;;18.90;99.90;;;;;;5052594;28;20187;-75
2023/10/12 01:34:38;;;;;;;12.33;3.90;;;18.70;99.90;;;;;;5051161;28;20219;-75
2023/10/12 01:37:08;;;;;;;10.83;4.23;;;18.80;99.90;;;;;;5052630;28;20186;-75
2023/10/12 01:39:38;;;;;;;14.43;4.67;;;18.90;1.00;;;;;;5051123;28;20207;-75
2023/10/12 01:42:05;;;;;;;7.07;4.13;;;18.70;1.00;;;;;;5052448;28;20237;-76
2023/10/12 01:44:32;;;;;;;9.23;3.90;;;18.70;1.00;;;;;;5036705;28;20569;-75
2023/10/12 01:46:57;;;;;;;10.23;4.73;;;18.70;1.00;;;;;;5032143;28;20536;-75
2023/10/12 01:49:23;;;;;;;14.93;4.43;;;18.70;1.00;;;;;;5032760;28;20187;-75
2023/10/12 01:51:49;;;;;;;13.03;5.30;;;18.60;1.00;;;;;;5032687;28;20636;-75
2023/10/12 01:54:24;;;;;;;11.97;4.70;;;18.60;99.90;;;;;;5042703;28;20193;-75
2023/10/12 01:56:53;;;;;;;9.03;4.63;;;18.60;1.00;;;;;;5051059;28;20639;-76
2023/10/12 01:59:21;;;;;;;10.87;4.47;;;18.60;99.90;;;;;;5049970;28;20196;-73
2023/10/12 02:01:53;;;;;;;10.03;5.17;;;18.60;1.00;;;;;;5052116;28;20164;-75
2023/10/12 02:04:21;;;;;;;10.23;5.13;;;18.50;1.00;;;;;;5051148;28;20579;-75
2023/10/12 02:06:47;;;;;;;12.97;5.50;;;18.40;1.00;;;;;;5052162;28;20160;-76
2023/10/12 02:09:15;;;;;;;11.20;5.60;;;18.30;1.00;;;;;;5052232;28;20179;-75
2023/10/12 02:11:45;;;;;;;14.27;5.73;;;18.20;1.00;;;;;;5052090;28;20168;-75
2023/10/12 02:14:12;;;;;;;9.57;5.60;;;18.00;1.00;;;;;;5049504;28;20183;-76
2023/10/12 02:16:38;;;;;;;11.93;6.43;;;18.10;1.00;;;;;;5052517;28;20203;-75
2023/10/12 02:19:08;;;;;;;10.30;6.63;;;17.80;1.00;;;;;;5050646;28;20674;-76
2023/10/12 02:21:37;;;;;;;13.83;7.73;;;17.70;1.00;;;;;;5052227;28;20172;-75
2023/10/12 02:26:35;;;;;;;13.23;8.10;;;17.50;1.00;;;;;;5052233;28;20584;-75
2023/10/12 02:29:11;;;;;;;13.03;7.90;;;17.40;26.70;;;;;;5050618;28;20649;-75
2023/10/12 02:32:15;;;;;;;14.50;8.57;;;17.30;40.20;;;;;;5050483;28;20278;-74
2023/10/12 02:34:42;;;;;;;15.43;8.43;;;17.30;59.90;;;;;;5049504;28;20569;-76
2023/10/12 02:39:42;;;;;;;21.33;9.53;;;17.20;99.90;;;;;;5052091;28;20196;-75
2023/10/12 02:42:17;;;;;;;12.63;8.47;;;17.10;99.90;;;;;;5031770;28;20243;-75
2023/10/12 02:47:17;;;;;;;17.80;9.33;;;17.00;99.90;;;;;;5052425;28;20172;-75
2023/10/12 02:49:43;;;;;;;12.70;9.00;;;17.00;99.90;;;;;;5051933;28;20243;-75
2023/10/12 02:52:10;;;;;;;12.13;9.07;;;17.00;99.90;;;;;;5050457;28;20241;-75
2023/10/12 02:54:49;;;;;;;12.97;9.40;;;16.90;99.90;;;;;;5051738;28;20616;-75
2023/10/12 02:57:16;;;;;;;15.27;9.77;;;17.00;99.90;;;;;;5050442;28;20222;-75
2023/10/12 02:59:42;;;;;;;16.20;9.30;;;16.90;99.90;;;;;;5050324;28;20288;-74
2023/10/12 03:02:19;;;;;;;11.97;8.97;;;16.90;99.90;;;;;;5049509;28;20655;-73
2023/10/12 03:04:45;;;;;;;16.97;10.10;;;16.90;99.90;;;;;;5051694;28;20198;-75
2023/10/12 03:07:13;;;;;;;13.07;8.77;;;16.90;99.90;;;;;;5051629;28;20674;-75
2023/10/12 03:09:43;;;;;;;18.83;9.13;;;16.80;99.90;;;;;;5051789;28;20191;-75
2023/10/12 03:12:10;;;;;;;12.70;8.17;;;16.80;99.90;;;;;;5053251;28;20216;-75
2023/10/12 03:14:35;;;;;;;12.13;7.43;;;16.80;99.90;;;;;;5055212;28;20675;-75
2023/10/12 03:17:04;;;;;;;14.30;7.43;;;16.80;99.90;;;;;;5053364;28;20182;-76
2023/10/12 03:19:35;;;;;;;10.23;7.17;;;16.80;99.90;;;;;;5054343;28;20231;-76
2023/10/12 03:22:17;;;;;;;11.40;7.13;;;16.70;99.90;;;;;;5055369;28;20205;-76
2023/10/12 03:24:45;;;;;;;9.47;6.27;;;16.70;99.90;;;;;;5055355;28;20167;-75
2023/10/12 03:27:13;;;;;;;12.87;7.40;;;16.70;99.90;;;;;;5054178;28;20208;-75
2023/10/12 03:30:17;;;;;;;13.20;7.33;;;16.70;99.90;;;;;;5053333;28;20184;-76
2023/10/12 03:32:31;;;;;;;13.77;7.37;;;16.60;99.90;;;;;;5054484;28;20207;-75
2023/10/12 03:34:57;;;;;;;13.67;7.63;;;16.70;99.90;;;;;;5054865;28;20179;-75
2023/10/12 03:42:54;;;;;;;14.37;8.00;;;16.60;99.90;;;;;;5054718;28;20274;-75
2023/10/12 03:45:40;;;;;;;11.63;7.80;;;16.50;99.90;;;;;;5054639;28;20697;-75
2023/10/12 03:50:58;;;;;;;12.67;8.17;;;16.40;99.90;;;;;;5055069;28;20650;-75
2023/10/12 03:53:26;;;;;;;12.03;8.50;;;16.40;99.90;;;;;;5054473;28;20211;-75
2023/10/12 03:56:00;;;;;;;15.20;8.87;;;16.40;99.90;;;;;;5053468;28;20187;-76
2023/10/12 03:58:27;;;;;;;13.07;8.67;;;16.40;99.90;;;;;;5041680;28;20200;-76
2023/10/12 04:01:10;;;;;;;12.67;8.47;;;16.40;99.90;;;;;;5033662;28;20179;-76
2023/10/12 04:03:37;;;;;;;11.83;8.33;;;16.40;99.90;;;;;;5034478;28;20199;-75
2023/10/12 04:06:15;;;;;;;13.23;8.97;;;16.30;99.90;;;;;;5034315;28;20160;-75
2023/10/12 04:08:51;;;;;;;15.37;8.87;;;16.10;99.90;;;;;;5033820;28;20195;-75
2023/10/12 04:14:43;;;;;;;18.97;9.00;;;16.30;99.90;;;;;;5035032;28;20215;-75
2023/10/12 04:16:47;;;;;;;12.70;8.73;;;16.20;99.90;;;;;;5033895;28;20219;-76
2023/10/12 04:19:29;;;;;;;13.63;8.70;;;16.20;99.90;;;;;;5049417;28;20235;-75
2023/10/12 04:22:07;;;;;;;13.80;9.40;;;16.30;99.90;;;;;;5053607;28;20197;-76
2023/10/12 04:24:42;;;;;;;12.23;8.67;;;16.20;99.90;;;;;;5052529;28;20552;-75
2023/10/12 04:27:23;;;;;;;14.90;9.70;;;16.20;99.90;;;;;;5050687;28;20175;-75
2023/10/12 04:29:51;;;;;;;14.60;8.93;;;16.20;99.90;;;;;;5052361;28;20331;-75
2023/10/12 04:32:35;;;;;;;17.27;8.00;;;16.20;99.90;;;;;;5053786;28;20251;-76
2023/10/12 04:35:08;;;;;;;15.00;8.43;;;16.20;99.90;;;;;;5054030;28;20156;-76
2023/10/12 04:37:36;;;;;;;16.20;8.77;;;16.10;99.90;;;;;;5052661;28;20309;-75
2023/10/12 04:40:14;;;;;;;16.50;8.83;;;16.20;99.90;;;;;;5051677;28;20244;-75
2023/10/12 04:42:45;;;;;;;16.37;8.90;;;16.10;99.90;;;;;;5053691;28;20552;-76
2023/10/12 04:48:17;;;;;;;17.40;8.70;;;16.00;99.90;;;;;;5045022;28;20192;-76
2023/10/12 04:50:44;;;;;;;14.63;8.57;;;16.00;99.90;;;;;;5037319;28;20191;-76
2023/10/12 04:53:12;;;;;;;15.77;9.47;;;16.00;99.90;;;;;;5033417;28;20200;-76
2023/10/12 04:55:41;;;;;;;14.00;8.30;;;15.90;99.90;;;;;;5033381;28;20619;-75
2023/10/12 04:58:17;;;;;;;16.97;9.30;;;15.90;99.90;;;;;;5031995;28;20173;-76
2023/10/12 05:00:48;;;;;;;13.57;9.17;;;16.00;99.90;;;;;;5046483;28;20210;-76
2023/10/12 05:03:33;;;;;;;16.77;9.70;;;16.00;99.90;;;;;;5053341;28;20227;-75
2023/10/12 05:06:08;;;;;;;14.27;9.50;;;15.90;99.90;;;;;;5051844;28;20220;-75
2023/10/12 05:08:34;;;;;;;15.87;9.20;;;15.90;99.90;;;;;;5051804;28;20160;-74
2023/10/12 05:11:00;;;;;;;18.03;9.90;;;15.90;99.90;;;;;;5051918;28;20184;-75
2023/10/12 05:13:26;;;;;;;12.77;9.17;;;15.90;99.90;;;;;;5052925;28;20657;-76
2023/10/12 05:15:56;;;;;;;13.17;9.53;;;15.90;99.90;;;;;;5053164;28;20632;-76
2023/10/12 05:18:23;;;;;;;15.37;10.17;;;15.80;99.90;;;;;;5052814;28;20175;-76
2023/10/12 05:20:49;;;;;;;16.33;10.07;;;15.90;99.90;;;;;;5036722;28;20596;-75
2023/10/12 05:23:16;;;;;;;15.53;9.53;;;15.90;99.90;;;;;;5032872;28;20246;-75
2023/10/12 05:25:53;;;;;;;15.13;8.93;;;15.90;99.90;;;;;;5032898;28;20219;-75
2023/10/12 05:28:30;;;;;;;13.20;9.63;;;15.90;99.90;;;;;;5031604;28;20187;-75
2023/10/12 05:36:09;;;;;;;15.13;9.13;;;15.80;99.90;;;;;;5032993;28;20173;-75
2023/10/12 05:38:49;;;;;;;18.93;9.47;;;15.80;99.90;;;;;;5031308;28;20333;-74
2023/10/12 05:41:29;;;;;;;20.40;9.97;;;15.70;99.90;;;;;;5047246;28;20658;-75
2023/10/12 05:43:56;;;;;;;13.73;9.40;;;15.70;99.90;;;;;;5050232;28;20191;-75
2023/10/12 05:46:22;;;;;;;19.73;10.00;;;15.70;99.90;;;;;;5051112;28;20532;-75
2023/10/12 05:48:51;;;;;;;18.30;9.67;;;15.70;99.90;;;;;;5052383;28;20193;-75
2023/10/12 05:51:21;;;;;;;14.67;9.47;;;15.70;99.90;;;;;;5051242;28;20187;-75
2023/10/12 05:53:48;;;;;;;21.10;9.87;;;15.70;99.90;;;;;;5052411;28;20192;-75
2023/10/12 05:56:17;;;;;;;19.47;10.93;;;15.70;99.90;;;;;;5052399;28;20178;-76
2023/10/12 05:58:43;;;;;;;15.63;9.77;;;15.70;99.90;;;;;;5051239;28;20211;-75
2023/10/12 06:01:09;;;;;;;14.77;10.33;;;15.70;99.90;;;;;;5041340;28;20185;-76
2023/10/12 06:03:36;;;;;;;18.77;11.07;;;15.70;99.90;;;;;;5037919;28;20226;-75
2023/10/12 06:06:02;;;;;;;19.40;10.17;;;15.70;99.90;;;;;;5052244;28;20712;-75
2023/10/12 06:08:29;;;;;;;19.23;11.10;;;15.70;99.90;;;;;;5052357;28;20176;-75
2023/10/12 06:10:55;;;;;;;18.50;10.90;;;15.70;99.90;;;;;;5051005;28;20179;-76
2023/10/12 06:13:30;;;;;;;18.90;10.80;;;15.70;99.90;;;;;;5052217;28;20199;-75
2023/10/12 06:15:56;;;;;;;19.83;10.87;;;15.70;99.90;;;;;;5050882;28;20178;-75
2023/10/12 06:18:21;;;;;;;16.57;10.77;;;15.70;99.90;;;;;;5051141;28;20175;-76
2023/10/12 06:21:06;;;;;;;19.93;10.63;;;15.70;99.90;;;;;;5043968;28;20591;-76
2023/10/12 06:23:31;;;;;;;18.03;10.60;;;15.70;99.90;;;;;;5032359;28;20211;-75
2023/10/12 06:25:57;;;;;;;17.67;10.23;;;15.70;99.90;;;;;;5032084;28;20180;-75
2023/10/12 06:28:23;;;;;;;19.80;10.93;;;15.70;99.90;;;;;;5032079;28;20195;-75
2023/10/12 06:30:50;;;;;;;15.57;10.20;;;15.70;99.90;;;;;;5036515;28;20195;-75
2023/10/12 06:33:17;;;;;;;15.10;10.00;;;15.70;99.90;;;;;;5050576;28;20202;-75
2023/10/12 06:35:59;;;;;;;14.97;9.50;;;15.70;99.90;;;;;;5050621;28;20185;-75
2023/10/12 06:41:57;;;;;;;16.90;9.13;;;15.70;99.90;;;;;;5051131;28;20194;-75
2023/10/12 06:44:26;;;;;;;13.53;9.17;;;15.70;99.90;;;;;;5051700;28;20183;-75
2023/10/12 06:46:57;;;;;;;17.20;9.37;;;15.80;99.90;;;;;;5055542;28;20543;-75
2023/10/12 06:49:29;;;;;;;19.93;9.13;;;15.70;99.90;;;;;;5055996;28;20184;-75
2023/10/12 06:52:02;;;;;;;18.13;10.30;;;15.70;99.90;;;;;;5038901;28;20211;-75
2023/10/12 06:54:33;;;;;;;14.23;9.50;;;15.70;99.90;;;;;;5035787;28;20537;-75
2023/10/12 07:02:29;;;;;;;14.77;8.80;;;15.70;99.90;;;;;;5053892;28;20286;-75
2023/10/12 07:05:00;;;;;;;16.37;9.87;;;15.70;99.90;;;;;;5054169;28;20176;-75
2023/10/12 07:07:36;;;;;;;13.97;8.93;;;15.80;99.90;;;;;;5051944;28;20180;-76
2023/10/12 07:12:37;;;;;;;16.10;9.90;;;15.80;99.90;;;;;;5055543;28;20204;-75
2023/10/12 07:15:10;;;;;;;19.57;9.33;;;15.80;99.90;;;;;;5053967;28;20179;-75
2023/10/12 07:17:36;;;;;;;13.77;8.33;;;15.90;99.90;;;;;;5053972;28;20179;-76
2023/10/12 07:20:03;;;;;;;18.27;9.47;;;15.80;99.90;;;;;;5055282;28;20554;-77
2023/10/12 07:22:34;;;;;;;19.07;10.07;;;15.80;99.90;;;;;;5054724;28;20208;-77
2023/10/12 07:25:00;;;;;;;14.50;8.97;;;15.80;99.90;;;;;;5056674;28;20156;-78
2023/10/12 07:27:26;;;;;;;16.80;9.83;;;15.90;99.90;;;;;;5053385;28;20180;-78
2023/10/12 07:30:08;;;;;;;21.50;9.67;;;15.90;99.90;;;;;;5055962;28;20658;-77
2023/10/12 07:32:55;;;;;;;18.57;10.00;;;15.90;99.90;;;;;;5054541;28;20205;-77
2023/10/12 07:35:31;;;;;;;18.83;10.67;;;15.90;99.90;;;;;;5055337;28;20192;-76
2023/10/12 07:37:57;;;;;;;16.10;9.93;;;15.90;99.90;;;;;;5053676;28;20270;-76
2023/10/12 07:40:23;;;;;;;19.10;9.70;;;15.90;99.90;;;;;;5053366;28;20695;-76
2023/10/12 07:42:48;;;;;;;21.50;9.97;;;15.90;99.90;;;;;;5054730;28;20278;-75
2023/10/12 07:45:19;;;;;;;15.70;9.17;;;15.90;99.90;;;;;;5053514;28;20551;-76
2023/10/12 07:47:58;;;;;;;17.47;9.03;;;15.90;99.90;;;;;;5045098;28;20710;-75
2023/10/12 07:50:25;;;;;;;17.77;8.90;;;16.00;99.90;;;;;;5033382;28;20169;-76
2023/10/12 07:53:05;;;;;;;23.37;9.30;;;15.90;99.90;;;;;;5047733;28;20214;-76
2023/10/12 07:55:31;;;;;;;13.40;8.40;;;15.90;99.90;;;;;;5051791;28;20236;-76
2023/10/12 07:57:56;;;;;;;14.53;9.67;;;15.90;99.90;;;;;;5052004;28;20582;-76
2023/10/12 08:03:07;;;;;;;14.47;9.30;;;15.90;99.90;;;;;;5054089;28;20204;-79
2023/10/12 08:10:48;;;;;;;16.60;9.87;;;16.00;99.90;;;;;;5054288;28;20214;-75
2023/10/12 08:23:49;;;;;;;16.50;8.73;;;16.10;99.90;;;;;;5053306;28;20206;-77
2023/10/12 08:26:35;;;;;;;17.17;9.07;;;16.30;99.90;;;;;;5055277;28;20514;-78
2023/10/12 08:29:09;;;;;;;12.53;8.43;;;16.10;99.90;;;;;;5053521;28;20171;-78
2023/10/12 08:31:43;;;;;;;14.03;7.97;;;16.10;99.90;;;;;;5053333;28;20659;-76
2023/10/12 08:37:17;;;;;;;13.17;8.40;;;16.20;99.90;;;;;;5054060;28;20166;-76
2023/10/12 08:40:01;;;;;;;16.53;8.73;;;16.20;99.90;;;;;;5053437;28;20214;-76
2023/10/12 08:42:37;;;;;;;14.80;9.00;;;16.20;99.90;;;;;;5033713;28;20208;-76
2023/10/12 08:45:15;;;;;;;13.83;8.70;;;16.20;99.90;;;;;;5033964;28;20172;-77
2023/10/12 08:47:48;;;;;;;15.90;9.13;;;16.20;99.90;;;;;;5034061;28;20202;-75
2023/10/12 08:52:51;;;;;;;15.47;8.50;;;16.30;99.90;;;;;;5033776;28;20208;-76
2023/10/12 08:55:24;;;;;;;15.17;8.23;;;16.10;99.90;;;;;;5033811;28;20157;-77
2023/10/12 08:58:02;;;;;;;14.07;7.90;;;16.30;99.90;;;;;;5033995;28;20176;-77
2023/10/12 09:03:06;;;;;;;13.87;7.57;;;16.40;99.90;;;;;;5033548;28;20192;-77
2023/10/12 09:05:33;;;;;;;18.23;8.57;;;16.40;99.90;;;;;;5033379;28;20164;-77
2023/10/12 09:13:29;;;;;;;12.53;8.23;;;16.40;99.90;;;;;;5053200;28;20709;-77
2023/10/12 09:15:57;;;;;;;13.87;8.30;;;16.50;99.90;;;;;;5051853;28;20179;-77
2023/10/12 09:18:24;;;;;;;11.87;8.23;;;16.50;99.90;;;;;;5035921;28;20290;-77
2023/10/12 09:36:28;;;;;;;17.57;8.40;;;16.70;99.90;;;;;;5052758;28;20168;-76
2023/10/12 09:38:57;;;;;;;12.93;7.73;;;16.80;99.90;;;;;;5051523;28;20211;-77
2023/10/12 09:41:33;;;;;;;16.37;7.97;;;16.80;99.90;;;;;;5051337;28;20176;-77
2023/10/12 09:44:04;;;;;;;11.53;7.70;;;16.90;99.90;;;;;;5051767;28;20265;-76
2023/10/12 09:46:31;;;;;;;15.63;7.97;;;16.90;99.90;;;;;;5052689;28;20561;-77
2023/10/12 09:49:06;;;;;;;14.33;7.80;;;17.00;99.90;;;;;;5031454;28;20694;-77
2023/10/12 09:51:45;;;;;;;12.77;7.60;;;17.00;99.90;;;;;;5031377;28;20164;-77
2023/10/12 09:54:18;;;;;;;16.47;8.30;;;17.10;99.90;;;;;;5031578;28;20168;-77
2023/10/12 09:56:57;;;;;;;23.43;8.90;;;17.20;99.90;;;;;;5043858;28;20191;-79
2023/10/12 09:59:23;;;;;;;12.67;8.37;;;17.20;99.90;;;;;;5052268;28;20229;-76
2023/10/12 10:01:49;;;;;;;16.27;8.20;;;17.30;99.90;;;;;;5052277;28;20182;-77
2023/10/12 10:09:46;;;;;;;14.23;8.43;;;17.40;99.90;;;;;;5053029;28;20162;-77
2023/10/12 10:12:17;;;;;;;13.53;7.80;;;17.40;99.90;;;;;;5051686;28;20617;-77
2023/10/12 10:14:52;;;;;;;15.00;8.33;;;17.60;99.90;;;;;;5052536;28;20171;-77
2023/10/12 10:17:28;;;;;;;15.23;7.60;;;17.50;99.90;;;;;;5051411;28;20182;-77
2023/10/12 10:23:00;;;;;;;13.87;7.63;;;17.60;99.90;;;;;;5057014;28;20237;-75
2023/10/12 10:25:34;;;;;;;10.20;6.67;;;17.60;99.90;;;;;;5054238;28;20175;-76
2023/10/12 10:28:06;;;;;;;9.60;6.80;;;17.60;99.90;;;;;;5055109;28;20168;-75
2023/10/12 10:30:40;;;;;;;16.13;6.70;;;17.60;99.90;;;;;;5056334;28;20266;-75
2023/10/12 10:33:17;;;;;;;16.87;6.90;;;17.60;99.90;;;;;;5056550;28;20218;-75
2023/10/12 10:36:10;;;;;;;15.20;7.50;;;17.50;99.90;;;;;;5056764;28;20177;-77
2023/10/12 10:38:39;;;;;;;10.40;6.40;;;17.60;99.90;;;;;;5045634;28;20190;-76
2023/10/12 10:41:17;;;;;;;16.47;7.80;;;17.60;99.90;;;;;;5034960;28;20176;-76
2023/10/12 10:43:43;;;;;;;15.27;7.70;;;17.60;99.90;;;;;;5034757;28;20191;-76
2023/10/12 10:46:10;;;;;;;12.23;7.67;;;17.60;99.90;;;;;;5039169;28;20176;-76
2023/10/12 10:48:38;;;;;;;10.57;7.37;;;17.70;99.90;;;;;;5045309;28;20259;-76
2023/10/12 10:51:11;;;;;;;10.97;7.50;;;17.70;99.90;;;;;;5035848;28;20186;-76
2023/10/12 10:53:38;;;;;;;13.90;7.60;;;17.70;99.90;;;;;;5035792;28;20184;-76
2023/10/12 10:56:12;;;;;;;17.93;8.27;;;17.70;99.90;;;;;;5038409;28;20183;-76
2023/10/12 10:58:37;;;;;;;12.47;7.00;;;17.70;99.90;;;;;;5054657;28;20273;-75
2023/10/12 11:01:05;;;;;;;11.50;7.13;;;17.70;99.90;;;;;;5055606;28;20171;-75
2023/10/12 11:03:34;;;;;;;12.40;7.40;;;17.80;99.90;;;;;;5054459;28;20230;-77
2023/10/12 11:06:00;;;;;;;10.57;7.00;;;17.80;99.90;;;;;;5054255;28;20172;-77
2023/10/12 11:08:26;;;;;;;14.73;6.97;;;17.80;99.90;;;;;;5037828;28;20258;-74
2023/10/12 11:13:38;;;;;;;11.70;6.47;;;17.90;99.90;;;;;;5035958;28;20239;-76
2023/10/12 11:16:20;;;;;;;11.87;6.63;;;17.90;99.90;;;;;;5038883;28;20248;-75
2023/10/12 11:18:47;;;;;;;15.40;7.20;;;17.90;99.90;;;;;;5055363;28;20191;-75
2023/10/12 11:21:15;;;;;;;19.00;7.10;;;17.90;99.90;;;;;;5055423;28;20232;-75
2023/10/12 11:23:44;;;;;;;12.00;7.00;;;18.00;99.90;;;;;;5055232;28;20588;-75
2023/10/12 11:26:17;;;;;;;13.67;6.60;;;17.90;99.90;;;;;;5054223;28;20306;-75
2023/10/12 11:29:00;;;;;;;10.77;7.10;;;17.90;99.90;;;;;;5054148;28;20202;-75
2023/10/12 11:31:32;;;;;;;11.33;6.53;;;17.90;99.90;;;;;;5054941;28;20188;-75
2023/10/12 11:33:58;;;;;;;14.93;6.90;;;17.90;99.90;;;;;;5053723;28;20682;-75
2023/10/12 11:36:24;;;;;;;10.93;6.23;;;17.90;99.90;;;;;;5052108;28;20590;-76
2023/10/12 11:39:10;;;;;;;13.33;6.53;;;18.00;99.90;;;;;;5054987;28;20196;-76
2023/10/12 11:41:36;;;;;;;14.27;7.10;;;18.00;99.90;;;;;;5053092;28;20179;-76
2023/10/12 11:44:05;;;;;;;11.27;6.90;;;17.90;99.90;;;;;;5053907;28;20168;-76
2023/10/12 11:46:44;;;;;;;14.70;6.07;;;18.00;99.90;;;;;;5053458;28;20257;-76
2023/10/12 11:49:13;;;;;;;11.43;7.43;;;17.90;99.90;;;;;;5053483;28;20659;-76
2023/10/12 11:51:41;;;;;;;14.53;7.20;;;17.90;99.90;;;;;;5051844;28;20562;-76
2023/10/12 11:54:10;;;;;;;12.80;6.47;;;17.90;99.90;;;;;;5053440;28;20180;-76
2023/10/12 11:56:43;;;;;;;12.50;7.13;;;18.00;99.90;;;;;;5041764;28;20184;-77
2023/10/12 11:59:19;;;;;;;17.57;7.37;;;18.00;99.90;;;;;;5051909;28;20199;-77
2023/10/12 12:01:46;;;;;;;13.60;7.43;;;18.00;99.90;;;;;;5053216;28;20548;-77
2023/10/12 12:04:23;;;;;;;14.77;7.80;;;18.00;99.90;;;;;;5054414;28;20658;-75
2023/10/12 12:06:50;;;;;;;13.47;8.60;;;18.00;99.90;;;;;;5043879;28;20218;-76
2023/10/12 12:09:17;;;;;;;14.83;8.20;;;18.00;99.90;;;;;;5033249;28;20180;-74
2023/10/12 12:11:43;;;;;;;14.67;7.57;;;18.00;99.90;;;;;;5032957;28;20548;-76
2023/10/12 12:14:08;;;;;;;20.13;8.20;;;18.00;99.90;;;;;;5034415;28;20176;-76
2023/10/12 12:16:38;;;;;;;13.47;7.70;;;18.00;99.90;;;;;;5034081;28;20180;-76
2023/10/12 12:19:04;;;;;;;15.80;7.43;;;18.10;99.90;;;;;;5034157;28;20282;-77
2023/10/12 12:21:31;;;;;;;11.70;7.27;;;18.10;99.90;;;;;;5050303;28;20608;-76
2023/10/12 12:24:14;;;;;;;14.17;7.80;;;18.10;99.90;;;;;;5034259;28;20184;-77
2023/10/12 12:26:44;;;;;;;12.53;7.57;;;18.10;99.90;;;;;;5034931;28;20180;-76
2023/10/12 12:29:11;;;;;;;12.57;7.53;;;18.20;99.90;;;;;;5032789;28;20271;-76
2023/10/12 12:31:37;;;;;;;12.00;7.73;;;18.20;99.90;;;;;;5032656;28;20192;-76
2023/10/12 12:34:06;;;;;;;13.53;8.33;;;18.20;99.90;;;;;;5033978;28;20180;-76
2023/10/12 12:36:32;;;;;;;12.13;8.13;;;18.20;99.90;;;;;;5047225;28;20195;-77
2023/10/12 12:39:00;;;;;;;13.53;8.70;;;18.20;99.90;;;;;;5052457;28;20207;-76
2023/10/12 12:41:26;;;;;;;15.47;8.70;;;18.20;99.90;;;;;;5054038;28;20164;-76
2023/10/12 12:43:53;;;;;;;12.77;7.73;;;18.20;99.90;;;;;;5051642;28;20195;-76
2023/10/12 12:46:19;;;;;;;14.70;8.10;;;18.30;99.90;;;;;;5052611;28;20659;-77
2023/10/12 12:48:54;;;;;;;16.80;8.07;;;18.20;99.90;;;;;;5052447;28;20179;-77
2023/10/12 12:51:21;;;;;;;11.43;6.87;;;18.20;99.90;;;;;;5053954;28;20238;-77
2023/10/12 12:53:48;;;;;;;11.77;7.57;;;18.20;99.90;;;;;;5037726;28;20203;-77
2023/10/12 12:56:18;;;;;;;12.30;6.97;;;18.20;99.90;;;;;;5033662;28;20165;-77
2023/10/12 12:58:48;;;;;;;11.73;7.20;;;18.30;99.90;;;;;;5032256;28;20172;-76
2023/10/12 13:01:16;;;;;;;13.53;6.70;;;18.30;99.90;;;;;;5033612;28;20172;-77
2023/10/12 13:03:41;;;;;;;15.37;7.03;;;18.40;99.90;;;;;;5043681;28;20298;-77
2023/10/12 13:06:07;;;;;;;12.00;6.00;;;18.40;99.90;;;;;;5053484;28;20289;-77
2023/10/12 13:08:36;;;;;;;7.83;5.60;;;18.40;99.90;;;;;;5053234;28;20245;-77
2023/10/12 13:11:04;;;;;;;11.90;6.33;;;18.40;99.90;;;;;;5053165;28;20176;-77
2023/10/12 13:13:33;;;;;;;11.30;6.03;;;18.40;99.90;;;;;;5051953;28;20764;-77
2023/10/12 13:16:05;;;;;;;11.70;5.57;;;18.30;99.90;;;;;;5054130;28;20528;-77
2023/10/12 13:18:32;;;;;;;10.60;5.13;;;18.40;99.90;;;;;;5051772;28;20163;-76
2023/10/12 13:20:59;;;;;;;9.23;5.23;;;18.40;99.90;;;;;;5051750;28;20171;-76
2023/10/12 13:23:25;;;;;;;10.47;5.13;;;18.40;99.90;;;;;;5041223;28;20261;-75
2023/10/12 13:25:51;;;;;;;10.70;5.13;;;18.40;99.90;;;;;;5033332;28;20164;-76
2023/10/12 13:28:16;;;;;;;11.87;5.70;;;18.30;99.90;;;;;;5042038;28;20673;-77
2023/10/12 13:30:43;;;;;;;10.20;5.50;;;18.20;99.90;;;;;;5052644;28;20195;-76
2023/10/12 13:33:11;;;;;;;10.60;5.10;;;18.30;99.90;;;;;;5043668;28;20212;-77
2023/10/12 13:38:12;;;;;;;9.70;4.87;;;18.30;99.90;;;;;;5032918;28;20184;-76
2023/10/12 13:40:46;;;;;;;12.93;5.83;;;18.30;99.90;;;;;;5030143;28;20204;-76
2023/10/12 13:43:14;;;;;;;11.57;5.77;;;18.30;99.90;;;;;;5040064;28;20253;-76
2023/10/12 13:45:48;;;;;;;8.90;4.93;;;18.30;99.90;;;;;;5051240;28;20259;-76
2023/10/12 13:48:22;;;;;;;10.33;5.53;;;18.20;99.90;;;;;;5051274;28;20164;-75
2023/10/12 13:51:04;;;;;;;14.57;5.97;;;18.20;99.90;;;;;;5051207;28;20164;-76
2023/10/12 13:53:38;;;;;;;10.63;5.67;;;18.20;99.90;;;;;;5051482;28;20199;-76
2023/10/12 13:56:08;;;;;;;12.10;5.40;;;18.20;99.90;;;;;;5051405;28;20527;-76
2023/10/12 13:58:41;;;;;;;10.20;5.27;;;18.20;99.90;;;;;;5052325;28;20171;-75
2023/10/12 14:01:14;;;;;;;8.53;5.67;;;18.20;99.90;;;;;;5051102;28;20206;-76
2023/10/12 14:03:53;;;;;;;14.93;5.73;;;18.10;99.90;;;;;;5051249;28;20265;-76
2023/10/12 14:06:19;;;;;;;11.27;5.53;;;18.10;99.90;;;;;;5050997;28;20168;-76
2023/10/12 14:08:46;;;;;;;10.33;5.70;;;18.10;99.90;;;;;;5052573;28;20171;-75
2023/10/12 14:11:19;;;;;;;10.43;5.80;;;18.10;99.90;;;;;;5051154;28;20168;-76
2023/10/12 14:13:45;;;;;;;9.17;6.17;;;18.00;99.90;;;;;;5039994;28;20199;-76
2023/10/12 14:16:12;;;;;;;14.73;5.60;;;18.10;99.90;;;;;;5032892;28;20168;-76
2023/10/12 14:18:38;;;;;;;10.57;6.30;;;18.10;99.90;;;;;;5050797;28;20175;-77
2023/10/12 14:21:09;;;;;;;14.07;5.93;;;18.10;99.90;;;;;;5052349;28;20168;-77
2023/10/12 14:23:48;;;;;;;11.33;5.63;;;18.10;99.90;;;;;;5052354;28;20211;-77
2023/10/12 14:26:18;;;;;;;13.83;5.83;;;18.10;99.90;;;;;;5052620;28;20160;-77
2023/10/12 14:28:50;;;;;;;11.17;6.23;;;18.10;99.90;;;;;;5049748;28;20187;-77
2023/10/12 14:31:20;;;;;;;11.70;6.10;;;18.00;99.90;;;;;;5052251;28;20253;-77
2023/10/12 14:33:46;;;;;;;11.37;6.07;;;18.00;99.90;;;;;;5047683;28;20203;-77
2023/10/12 14:36:12;;;;;;;9.57;5.67;;;18.00;99.90;;;;;;5031934;28;20177;-77
2023/10/12 14:38:41;;;;;;;9.03;5.60;;;18.00;99.90;;;;;;5045618;28;20242;-76
2023/10/12 14:41:09;;;;;;;11.23;5.40;;;18.00;99.90;;;;;;5049685;28;20191;-76